Time;durP1;ratioP1;P1;durP2;ratioP2;P2;SDS_P1;SDS_P2;PMS_P1;PMS_P2;Temp;Humidity;BMP_temperature;BMP_pressure;BME280_temperature;BME280_humidity;BME280_pressure;Samples;Min_cycle;Max_cycle;Signal;HPM_P1;HPM_P2
2022/06/19 00:01:14;;;;;;;8.68;6.78;;;19.60;99.90;;;;;;5248744;28;20032;-76
2022/06/19 00:03:52;;;;;;;9.10;6.63;;;19.60;99.90;;;;;;5248842;28;20071;-75
2022/06/19 00:06:24;;;;;;;12.82;5.97;;;19.60;99.90;;;;;;5249179;28;20033;-75
2022/06/19 00:08:54;;;;;;;11.27;5.80;;;19.60;99.90;;;;;;5249054;28;20076;-76
2022/06/19 00:11:25;;;;;;;8.35;5.88;;;19.40;99.90;;;;;;5248390;28;20590;-75
2022/06/19 00:13:56;;;;;;;8.65;5.53;;;19.50;99.90;;;;;;5248537;28;20042;-75
2022/06/19 00:16:27;;;;;;;8.63;5.30;;;19.40;99.90;;;;;;5248735;28;20032;-76
2022/06/19 00:18:58;;;;;;;10.85;5.93;;;19.50;99.90;;;;;;5248251;28;20021;-75
2022/06/19 00:21:29;;;;;;;10.02;5.40;;;19.50;99.90;;;;;;5248788;28;20025;-75
2022/06/19 00:24:00;;;;;;;9.50;5.57;;;19.50;99.90;;;;;;5248419;28;20016;-75
2022/06/19 00:26:31;;;;;;;6.80;4.68;;;19.50;99.90;;;;;;5248280;28;20028;-75
2022/06/19 00:29:01;;;;;;;9.77;4.85;;;19.60;99.90;;;;;;5248357;28;20023;-74
2022/06/19 00:31:32;;;;;;;8.02;4.45;;;19.60;99.90;;;;;;5248671;28;20033;-75
2022/06/19 00:34:04;;;;;;;8.50;4.53;;;19.50;99.90;;;;;;5248286;28;20135;-76
2022/06/19 00:36:35;;;;;;;10.55;4.72;;;19.60;99.90;;;;;;5247320;28;20400;-75
2022/06/19 00:39:06;;;;;;;11.30;4.30;;;19.50;99.90;;;;;;5248518;28;20035;-75
2022/06/19 00:41:41;;;;;;;9.88;4.30;;;19.50;99.90;;;;;;5248478;28;20040;-76
2022/06/19 00:44:14;;;;;;;6.13;4.22;;;19.40;99.90;;;;;;5247894;28;20052;-75
2022/06/19 00:47:09;;;;;;;5.78;3.83;;;19.30;99.90;;;;;;5248252;28;20033;-75
2022/06/19 00:50:03;;;;;;;7.75;4.50;;;19.30;99.90;;;;;;5248190;28;20168;-75
2022/06/19 00:52:38;;;;;;;7.07;4.82;;;19.20;99.90;;;;;;5247679;28;20063;-75
2022/06/19 00:55:16;;;;;;;7.18;4.68;;;19.20;99.90;;;;;;5247040;28;20029;-76
2022/06/19 00:57:50;;;;;;;6.70;3.47;;;19.30;99.90;;;;;;5246815;28;20380;-75
2022/06/19 01:00:26;;;;;;;7.93;4.20;;;19.30;99.90;;;;;;5246704;28;20415;-75
2022/06/19 01:03:06;;;;;;;9.25;4.25;;;19.30;99.90;;;;;;5248188;28;20473;-75
2022/06/19 01:05:40;;;;;;;7.20;3.75;;;19.20;99.90;;;;;;5248278;28;20546;-75
2022/06/19 01:08:14;;;;;;;5.28;4.10;;;19.10;99.90;;;;;;5247815;28;20048;-75
2022/06/19 01:10:48;;;;;;;6.95;3.80;;;19.10;99.90;;;;;;5247789;28;20033;-75
2022/06/19 01:13:22;;;;;;;9.23;3.97;;;19.10;99.90;;;;;;5246711;28;20067;-75
2022/06/19 01:15:53;;;;;;;7.25;4.22;;;19.10;99.90;;;;;;5246765;28;20477;-76
2022/06/19 01:18:25;;;;;;;6.32;4.40;;;19.00;99.90;;;;;;5246789;28;20020;-75
2022/06/19 01:21:01;;;;;;;6.10;3.92;;;18.90;99.90;;;;;;5246812;28;20024;-76
2022/06/19 01:24:27;;;;;;;9.00;4.30;;;18.90;99.90;;;;;;5246777;28;20056;-74
2022/06/19 01:27:01;;;;;;;4.80;4.13;;;18.90;99.90;;;;;;5193279;28;20040;-75
2022/06/19 01:29:33;;;;;;;7.57;4.65;;;18.90;99.90;;;;;;5248067;28;20032;-75
2022/06/19 01:32:07;;;;;;;8.20;4.63;;;18.90;99.90;;;;;;5247885;28;20043;-75
2022/06/19 01:34:41;;;;;;;19.58;5.07;;;19.00;99.90;;;;;;5246614;28;20025;-75
2022/06/19 01:37:20;;;;;;;7.38;4.57;;;19.00;99.90;;;;;;5246500;28;20381;-75
2022/06/19 01:39:57;;;;;;;5.73;4.53;;;19.10;99.90;;;;;;5251594;28;20021;-75
2022/06/19 01:42:30;;;;;;;11.15;4.75;;;19.10;99.90;;;;;;5251599;28;20361;-75
2022/06/19 01:45:01;;;;;;;6.50;4.40;;;19.30;99.90;;;;;;5251428;28;20044;-75
2022/06/19 01:47:32;;;;;;;6.75;4.72;;;19.30;99.90;;;;;;5251585;28;20021;-76
2022/06/19 01:50:06;;;;;;;6.38;4.90;;;19.20;99.90;;;;;;5251716;28;20108;-75
2022/06/19 01:52:37;;;;;;;7.53;5.10;;;19.30;99.90;;;;;;5251582;28;20027;-75
2022/06/19 01:55:15;;;;;;;5.70;5.07;;;19.40;99.90;;;;;;5251552;28;20024;-76
2022/06/19 01:57:50;;;;;;;7.50;4.63;;;19.30;99.90;;;;;;5251330;28;20153;-75
2022/06/19 02:00:26;;;;;;;5.70;4.80;;;19.30;99.90;;;;;;5250233;28;20025;-75
2022/06/19 02:03:13;;;;;;;12.18;5.07;;;19.30;99.90;;;;;;5251388;28;20081;-75
2022/06/19 02:05:44;;;;;;;7.72;5.63;;;19.30;99.90;;;;;;5250323;28;20465;-75
2022/06/19 02:08:16;;;;;;;8.73;5.53;;;19.20;99.90;;;;;;5251180;28;20025;-75
2022/06/19 02:10:48;;;;;;;8.80;5.82;;;19.20;99.90;;;;;;5251118;28;20025;-76
2022/06/19 02:13:21;;;;;;;9.98;5.75;;;19.20;99.90;;;;;;5251186;28;20031;-75
2022/06/19 02:15:53;;;;;;;9.40;5.40;;;19.20;99.90;;;;;;5249924;28;20039;-75
2022/06/19 02:18:29;;;;;;;6.05;5.45;;;19.20;99.90;;;;;;5251247;28;20025;-75
2022/06/19 02:21:00;;;;;;;10.05;5.40;;;19.20;99.90;;;;;;5249683;28;20392;-75
2022/06/19 02:23:35;;;;;;;7.60;5.38;;;19.20;99.90;;;;;;5249623;28;20032;-76
2022/06/19 02:26:09;;;;;;;6.10;5.18;;;19.20;99.90;;;;;;5249836;28;20025;-75
2022/06/19 02:28:45;;;;;;;9.85;5.55;;;19.10;99.90;;;;;;5250854;28;20056;-74
2022/06/19 02:31:17;;;;;;;9.07;6.13;;;19.00;99.90;;;;;;5250966;28;20029;-75
2022/06/19 02:33:53;;;;;;;12.20;6.32;;;19.10;99.90;;;;;;5249517;28;20060;-74
2022/06/19 02:36:42;;;;;;;11.43;6.18;;;19.10;99.90;;;;;;5250671;28;20465;-75
2022/06/19 02:39:34;;;;;;;7.15;5.80;;;19.20;99.90;;;;;;5250787;28;20372;-75
2022/06/19 02:42:20;;;;;;;9.93;6.38;;;19.10;99.90;;;;;;5250652;28;20017;-75
2022/06/19 02:45:04;;;;;;;9.45;6.05;;;19.10;99.90;;;;;;5250246;28;20063;-75
2022/06/19 02:47:37;;;;;;;11.45;5.97;;;19.10;99.90;;;;;;5250737;28;20392;-74
2022/06/19 02:50:13;;;;;;;11.82;6.10;;;19.10;99.90;;;;;;5249928;28;20024;-75
2022/06/19 02:52:44;;;;;;;7.78;6.28;;;19.10;99.90;;;;;;5250451;28;20028;-74
2022/06/19 02:55:16;;;;;;;8.80;6.47;;;19.00;99.90;;;;;;5250360;28;20024;-75
2022/06/19 02:57:49;;;;;;;8.07;6.45;;;19.00;99.90;;;;;;5250524;28;20028;-75
2022/06/19 03:00:24;;;;;;;14.38;6.10;;;19.00;99.90;;;;;;5250308;28;20059;-75
2022/06/19 03:03:00;;;;;;;8.88;5.53;;;19.20;99.90;;;;;;5250304;28;20033;-75
2022/06/19 03:05:31;;;;;;;16.75;6.40;;;19.20;99.90;;;;;;5250151;28;20043;-75
2022/06/19 03:08:02;;;;;;;10.80;5.72;;;19.20;99.90;;;;;;5249978;28;20031;-75
2022/06/19 03:10:33;;;;;;;12.10;5.43;;;19.20;99.90;;;;;;5248693;28;20029;-75
2022/06/19 03:13:04;;;;;;;9.20;5.07;;;19.30;99.90;;;;;;5249696;28;20024;-75
2022/06/19 03:15:35;;;;;;;13.13;7.07;;;19.30;99.90;;;;;;5249895;28;20024;-75
2022/06/19 03:18:06;;;;;;;10.20;5.53;;;19.30;99.90;;;;;;5249916;28;20432;-75
2022/06/19 03:20:37;;;;;;;10.10;5.65;;;19.50;99.90;;;;;;5249739;28;20025;-75
2022/06/19 03:23:07;;;;;;;5.72;5.10;;;19.50;99.90;;;;;;5249713;28;20060;-75
2022/06/19 03:25:38;;;;;;;9.90;5.20;;;19.50;99.90;;;;;;5249724;28;20120;-75
2022/06/19 03:28:09;;;;;;;11.90;5.55;;;19.60;99.90;;;;;;5248370;28;20479;-75
2022/06/19 03:30:40;;;;;;;8.43;5.72;;;19.70;99.90;;;;;;5249736;28;20453;-75
2022/06/19 03:33:10;;;;;;;12.30;5.50;;;19.80;99.90;;;;;;5249424;28;20200;-75
2022/06/19 03:35:41;;;;;;;11.00;5.20;;;19.90;99.90;;;;;;5249602;28;20048;-75
2022/06/19 03:38:12;;;;;;;8.82;5.93;;;19.90;99.90;;;;;;5248345;28;20029;-75
2022/06/19 03:40:43;;;;;;;9.48;5.18;;;19.90;99.90;;;;;;5249580;28;20077;-75
2022/06/19 03:43:14;;;;;;;8.68;4.90;;;20.00;99.90;;;;;;5249290;28;20064;-75
2022/06/19 03:45:44;;;;;;;10.07;5.07;;;20.00;99.90;;;;;;5247926;28;20056;-75
2022/06/19 03:48:15;;;;;;;8.10;4.40;;;20.10;99.90;;;;;;5249230;28;20537;-75
2022/06/19 03:50:46;;;;;;;8.25;4.68;;;20.10;99.90;;;;;;5249862;28;20358;-75
2022/06/19 03:53:17;;;;;;;10.05;4.65;;;20.10;99.90;;;;;;5249291;28;20096;-75
2022/06/19 03:55:48;;;;;;;12.30;4.90;;;20.10;99.90;;;;;;5249043;28;20461;-75
2022/06/19 03:58:19;;;;;;;9.18;4.78;;;20.10;99.90;;;;;;5249116;28;20477;-75
2022/06/19 04:00:50;;;;;;;10.80;5.10;;;20.10;99.90;;;;;;5248166;28;20496;-75
2022/06/19 04:03:21;;;;;;;10.27;4.45;;;20.10;99.90;;;;;;5249037;28;20028;-74
2022/06/19 04:05:51;;;;;;;9.05;4.70;;;20.00;99.90;;;;;;5248851;28;20103;-75
2022/06/19 04:08:24;;;;;;;8.60;4.20;;;20.00;99.90;;;;;;5248700;28;20113;-74
2022/06/19 04:10:54;;;;;;;11.98;4.40;;;20.10;99.90;;;;;;5248651;28;20041;-75
2022/06/19 04:13:25;;;;;;;8.90;4.30;;;20.20;99.90;;;;;;5248709;28;20028;-75
2022/06/19 04:15:56;;;;;;;12.60;5.22;;;20.30;99.90;;;;;;5248741;28;20104;-75
2022/06/19 04:18:29;;;;;;;15.85;4.05;;;20.30;99.90;;;;;;5247553;28;20456;-75
2022/06/19 04:21:00;;;;;;;10.25;4.45;;;20.30;99.90;;;;;;5248798;28;20013;-75
2022/06/19 04:23:31;;;;;;;8.20;4.20;;;20.40;99.90;;;;;;5248419;28;20035;-74
2022/06/19 04:26:02;;;;;;;5.13;3.38;;;20.50;99.90;;;;;;5247049;28;20032;-76
2022/06/19 04:28:33;;;;;;;8.38;4.07;;;20.40;99.90;;;;;;5248559;28;20035;-75
2022/06/19 04:31:04;;;;;;;11.23;4.50;;;20.50;99.90;;;;;;5248659;28;20360;-75
2022/06/19 04:33:39;;;;;;;6.72;4.13;;;20.60;99.90;;;;;;5248569;28;20024;-75
2022/06/19 04:36:14;;;;;;;7.25;4.40;;;20.60;99.90;;;;;;5248281;28;20027;-75
2022/06/19 04:38:48;;;;;;;5.63;4.05;;;20.60;99.90;;;;;;5247176;28;20025;-75
2022/06/19 04:41:24;;;;;;;8.18;4.47;;;20.60;99.90;;;;;;5247027;28;20496;-75
2022/06/19 04:43:57;;;;;;;18.77;5.80;;;20.50;99.90;;;;;;5248168;28;20451;-75
2022/06/19 04:46:28;;;;;;;4.88;3.63;;;20.50;99.90;;;;;;5248309;28;20071;-75
2022/06/19 04:48:59;;;;;;;7.75;4.60;;;20.50;99.90;;;;;;5248117;28;20056;-75
2022/06/19 04:51:29;;;;;;;6.57;4.18;;;20.70;99.90;;;;;;5248406;28;20373;-74
2022/06/19 04:54:00;;;;;;;7.53;4.10;;;20.80;99.90;;;;;;5248356;28;20538;-74
2022/06/19 04:56:31;;;;;;;16.33;4.30;;;20.70;99.90;;;;;;5248220;28;20372;-75
2022/06/19 04:59:02;;;;;;;8.57;3.72;;;20.70;99.90;;;;;;5246639;28;20354;-74
2022/06/19 05:01:38;;;;;;;4.47;3.35;;;20.80;99.90;;;;;;5248205;28;20372;-75
2022/06/19 05:04:12;;;;;;;6.72;4.07;;;20.70;99.90;;;;;;5247028;28;20041;-75
2022/06/19 05:06:43;;;;;;;7.25;3.47;;;20.80;99.90;;;;;;5248119;28;20020;-75
2022/06/19 05:09:13;;;;;;;6.05;3.35;;;20.80;99.90;;;;;;5246833;28;20025;-75
2022/06/19 05:11:44;;;;;;;7.18;3.70;;;20.80;99.90;;;;;;5248245;28;20085;-75
2022/06/19 05:14:15;;;;;;;11.65;3.65;;;20.90;99.90;;;;;;5252371;28;20056;-75
2022/06/19 05:16:46;;;;;;;7.28;3.47;;;21.10;99.90;;;;;;5252365;28;20040;-75
2022/06/19 05:19:16;;;;;;;6.72;3.67;;;21.10;99.90;;;;;;5252319;28;20024;-75
2022/06/19 05:21:47;;;;;;;7.55;3.55;;;21.20;99.90;;;;;;5252175;28;20017;-76
2022/06/19 05:24:18;;;;;;;3.90;2.95;;;21.20;99.90;;;;;;5252099;28;20358;-75
2022/06/19 05:26:50;;;;;;;7.20;3.45;;;21.30;99.90;;;;;;5252127;28;20032;-75
2022/06/19 05:29:20;;;;;;;4.95;3.45;;;21.40;99.90;;;;;;5251852;28;20086;-75
2022/06/19 05:31:51;;;;;;;5.63;3.55;;;21.60;99.90;;;;;;5252021;28;20017;-75
2022/06/19 05:34:22;;;;;;;5.80;2.95;;;21.40;99.90;;;;;;5251884;28;20388;-75
2022/06/19 05:36:53;;;;;;;5.43;2.72;;;21.80;99.90;;;;;;5251710;28;20472;-75
2022/06/19 05:39:24;;;;;;;9.07;3.00;;;21.40;99.90;;;;;;5251853;28;20529;-75
2022/06/19 05:41:57;;;;;;;7.80;2.85;;;21.20;99.90;;;;;;5250516;28;20460;-74
2022/06/19 05:44:28;;;;;;;7.68;3.40;;;20.90;99.90;;;;;;5251193;28;20056;-75
2022/06/19 05:46:59;;;;;;;7.47;3.17;;;21.30;99.90;;;;;;5250529;28;20483;-75
2022/06/19 05:49:32;;;;;;;5.90;3.20;;;21.20;99.90;;;;;;5251727;28;20020;-75
2022/06/19 05:52:16;;;;;;;5.10;2.63;;;21.40;99.90;;;;;;5251402;28;20020;-75
2022/06/19 05:54:47;;;;;;;8.45;3.13;;;21.50;99.90;;;;;;5251674;28;20035;-74
2022/06/19 05:57:19;;;;;;;7.03;3.30;;;21.60;99.90;;;;;;5251508;28;20032;-75
2022/06/19 05:59:50;;;;;;;5.50;3.13;;;21.60;99.90;;;;;;5251446;28;20020;-75
2022/06/19 06:02:23;;;;;;;3.42;2.65;;;21.70;99.90;;;;;;5251341;28;20107;-75
2022/06/19 06:04:53;;;;;;;6.93;2.63;;;21.90;99.90;;;;;;5251364;28;20068;-75
2022/06/19 06:07:24;;;;;;;6.72;2.60;;;22.40;99.90;;;;;;5251309;28;20089;-75
2022/06/19 06:09:55;;;;;;;6.15;2.03;;;22.00;99.90;;;;;;5250222;28;20040;-75
2022/06/19 06:12:25;;;;;;;3.80;2.08;;;22.20;99.90;;;;;;5250764;28;20020;-74
2022/06/19 06:14:56;;;;;;;3.65;2.17;;;22.00;99.90;;;;;;5249834;28;20024;-79
2022/06/19 06:17:27;;;;;;;7.20;3.10;;;21.70;99.90;;;;;;5248942;28;20028;-74
2022/06/19 06:19:58;;;;;;;7.95;2.60;;;21.60;99.90;;;;;;5251336;28;20029;-74
2022/06/19 06:22:28;;;;;;;5.50;2.83;;;21.60;99.90;;;;;;5246837;28;20055;-74
2022/06/19 06:24:59;;;;;;;4.40;2.30;;;21.70;99.90;;;;;;5248836;28;20036;-73
2022/06/19 06:27:30;;;;;;;5.15;2.38;;;22.00;99.90;;;;;;5251182;28;20025;-73
2022/06/19 06:30:01;;;;;;;5.03;2.22;;;22.20;99.90;;;;;;5251012;28;20016;-73
2022/06/19 06:32:32;;;;;;;10.52;2.75;;;22.00;99.90;;;;;;5250917;28;20542;-73
2022/06/19 06:35:03;;;;;;;5.10;2.33;;;22.50;99.90;;;;;;5249670;28;20082;-73
2022/06/19 06:37:34;;;;;;;4.55;2.35;;;22.60;99.90;;;;;;5250991;28;20021;-74
2022/06/19 06:40:07;;;;;;;4.00;2.53;;;22.40;99.90;;;;;;5249674;28;20028;-73
2022/06/19 06:42:38;;;;;;;7.15;2.45;;;22.20;99.90;;;;;;5250892;28;20025;-74
2022/06/19 06:45:12;;;;;;;3.80;2.50;;;22.10;99.90;;;;;;5250421;28;20055;-73
2022/06/19 06:47:43;;;;;;;4.50;3.10;;;22.30;99.90;;;;;;5250603;28;20052;-73
2022/06/19 06:50:14;;;;;;;6.25;2.78;;;22.40;99.90;;;;;;5250530;28;20048;-73
2022/06/19 06:52:45;;;;;;;3.90;2.28;;;22.20;99.90;;;;;;5250666;28;20021;-73
2022/06/19 06:55:16;;;;;;;4.20;2.38;;;22.40;99.90;;;;;;5250041;28;20028;-73
2022/06/19 06:57:46;;;;;;;6.10;2.40;;;22.00;99.90;;;;;;5250296;28;20021;-73
2022/06/19 07:00:20;;;;;;;3.38;2.20;;;22.30;99.90;;;;;;5250357;28;20025;-74
2022/06/19 07:02:51;;;;;;;5.43;2.20;;;22.60;99.90;;;;;;5250080;28;20031;-74
2022/06/19 07:05:22;;;;;;;6.88;2.40;;;22.70;99.90;;;;;;5250005;28;20031;-73
2022/06/19 07:07:53;;;;;;;4.70;2.30;;;22.90;99.90;;;;;;5250119;28;20115;-73
2022/06/19 07:10:24;;;;;;;4.85;2.40;;;22.70;99.90;;;;;;5250013;28;20369;-74
2022/06/19 07:12:55;;;;;;;3.58;1.92;;;22.70;99.90;;;;;;5249691;28;20082;-74
2022/06/19 07:15:25;;;;;;;10.98;2.30;;;22.50;99.90;;;;;;5250096;28;20016;-74
2022/06/19 07:17:56;;;;;;;2.40;2.05;;;22.60;99.90;;;;;;5249848;28;20029;-74
2022/06/19 07:20:27;;;;;;;3.35;2.20;;;22.90;99.90;;;;;;5248708;28;20024;-74
2022/06/19 07:22:58;;;;;;;6.10;2.70;;;22.70;99.90;;;;;;5249755;28;20489;-74
2022/06/19 07:25:28;;;;;;;24.75;6.57;;;22.80;99.90;;;;;;5249706;28;20495;-76
2022/06/19 07:27:59;;;;;;;9.10;3.58;;;22.50;99.90;;;;;;5249721;28;20053;-75
2022/06/19 07:30:30;;;;;;;4.97;2.03;;;22.60;99.90;;;;;;5248003;28;20021;-74
2022/06/19 07:33:01;;;;;;;3.35;1.98;;;22.90;99.90;;;;;;5248218;28;20070;-75
2022/06/19 07:35:32;;;;;;;7.68;2.67;;;23.30;99.90;;;;;;5249380;28;20025;-75
2022/06/19 07:38:03;;;;;;;6.00;2.13;;;23.20;99.90;;;;;;5248279;28;20098;-75
2022/06/19 07:40:35;;;;;;;3.22;1.90;;;23.30;99.90;;;;;;5249516;28;20017;-75
2022/06/19 07:43:09;;;;;;;3.55;1.80;;;23.90;99.90;;;;;;5248016;28;20541;-75
2022/06/19 07:45:42;;;;;;;4.38;1.77;;;23.60;99.90;;;;;;5249152;28;20059;-75
2022/06/19 07:51:03;;;;;;;3.70;1.60;;;22.80;99.90;;;;;;5249355;28;20498;-75
2022/06/19 07:53:34;;;;;;;3.00;1.90;;;23.30;99.90;;;;;;5247929;28;20031;-75
2022/06/19 07:56:05;;;;;;;2.42;1.63;;;23.00;99.90;;;;;;5249272;28;20460;-75
2022/06/19 07:58:37;;;;;;;3.30;1.70;;;23.20;99.90;;;;;;5248897;28;20033;-74
2022/06/19 08:01:08;;;;;;;5.10;2.13;;;23.40;99.90;;;;;;5247875;28;20032;-75
2022/06/19 08:03:39;;;;;;;3.38;1.70;;;23.60;99.90;;;;;;5247810;28;20028;-75
2022/06/19 08:06:13;;;;;;;4.60;2.38;;;23.80;99.90;;;;;;5247749;28;20131;-75
2022/06/19 08:08:46;;;;;;;3.65;1.73;;;23.40;99.90;;;;;;5248760;28;20023;-74
2022/06/19 08:11:17;;;;;;;5.72;2.50;;;23.30;99.90;;;;;;5248794;28;20029;-72
2022/06/19 08:13:48;;;;;;;4.60;2.42;;;23.70;99.90;;;;;;5248511;28;20052;-73
2022/06/19 08:16:19;;;;;;;4.25;2.00;;;23.80;99.90;;;;;;5247447;28;20040;-74
2022/06/19 08:18:50;;;;;;;6.03;2.28;;;23.10;99.90;;;;;;5246486;28;20025;-73
2022/06/19 08:21:21;;;;;;;2.38;1.88;;;22.80;99.90;;;;;;5248351;28;20067;-74
2022/06/19 08:23:51;;;;;;;3.95;2.03;;;23.10;99.90;;;;;;5247080;28;20056;-75
2022/06/19 08:26:22;;;;;;;7.15;2.05;;;23.00;99.90;;;;;;5248328;28;20376;-75
2022/06/19 08:31:31;;;;;;;2.65;1.65;;;23.50;99.90;;;;;;5248546;28;20503;-75
2022/06/19 08:34:03;;;;;;;3.70;1.77;;;24.00;99.90;;;;;;5248427;28;20017;-74
2022/06/19 08:36:35;;;;;;;2.75;1.60;;;23.70;99.90;;;;;;5248331;28;20099;-75
2022/06/19 08:39:10;;;;;;;6.60;1.98;;;23.70;99.90;;;;;;5248229;28;20103;-74
2022/06/19 08:41:57;;;;;;;5.15;1.70;;;23.60;99.90;;;;;;5247134;28;20024;-74
2022/06/19 08:44:41;;;;;;;3.47;1.90;;;23.80;99.90;;;;;;5246698;28;20055;-75
2022/06/19 08:47:43;;;;;;;6.15;2.28;;;23.80;99.90;;;;;;5247660;28;20024;-75
2022/06/19 08:50:34;;;;;;;3.45;2.10;;;23.60;99.90;;;;;;5248231;28;20025;-74
2022/06/19 08:53:14;;;;;;;3.30;1.55;;;24.40;99.90;;;;;;5247968;28;20031;-74
2022/06/19 08:56:08;;;;;;;4.38;2.00;;;23.80;99.90;;;;;;5247963;28;20017;-73
2022/06/19 08:59:15;;;;;;;2.30;1.63;;;23.40;99.90;;;;;;5248133;28;20596;-72
2022/06/19 09:02:02;;;;;;;4.15;1.90;;;24.00;99.90;;;;;;5235434;28;20024;-73
2022/06/19 09:07:43;;;;;;;5.75;1.52;;;24.40;99.90;;;;;;5247588;28;20036;-73
2022/06/19 09:10:35;;;;;;;5.20;1.98;;;23.80;99.90;;;;;;5244746;28;20024;-74
2022/06/19 09:13:33;;;;;;;5.05;2.05;;;24.30;99.90;;;;;;5247559;28;20021;-74
2022/06/19 09:16:27;;;;;;;4.05;1.80;;;23.80;99.90;;;;;;5236634;28;20040;-74
2022/06/19 09:19:05;;;;;;;5.63;2.10;;;23.90;99.90;;;;;;5245235;28;20021;-74
2022/06/19 09:22:00;;;;;;;4.93;1.90;;;23.80;99.90;;;;;;5245115;28;20098;-73
2022/06/19 09:25:05;;;;;;;5.72;1.52;;;24.20;99.90;;;;;;5243062;28;20036;-73
2022/06/19 09:27:53;;;;;;;3.63;2.00;;;24.70;99.90;;;;;;5238139;28;20091;-73
2022/06/19 09:30:33;;;;;;;6.90;2.33;;;24.90;99.90;;;;;;5240725;28;20037;-74
2022/06/19 09:33:19;;;;;;;5.80;2.08;;;25.10;99.90;;;;;;5245478;28;20091;-74
2022/06/19 09:36:36;;;;;;;3.05;1.70;;;25.10;99.90;;;;;;5247565;28;20028;-75
2022/06/19 09:39:18;;;;;;;6.78;2.05;;;24.60;99.90;;;;;;5230984;28;20536;-73
2022/06/19 09:41:56;;;;;;;2.85;1.45;;;24.30;99.90;;;;;;5245969;28;20098;-73
2022/06/19 09:44:34;;;;;;;4.72;1.80;;;25.30;99.90;;;;;;5247119;28;20051;-73
2022/06/19 09:47:14;;;;;;;4.60;2.50;;;24.70;99.90;;;;;;5242496;28;20029;-74
2022/06/19 09:49:49;;;;;;;;;;;25.00;99.90;;;;;;5248133;28;20407;-73
2022/06/19 09:52:40;;;;;;;6.07;1.92;;;24.60;99.90;;;;;;5247704;28;19904;-73
2022/06/19 09:55:33;;;;;;;6.05;1.83;;;23.80;99.90;;;;;;5247720;28;20484;-73
2022/06/19 09:58:18;;;;;;;5.82;1.80;;;24.40;99.90;;;;;;5245280;28;20028;-73
2022/06/19 10:00:51;;;;;;;2.60;1.70;;;24.40;99.90;;;;;;5250502;28;20047;-73
2022/06/19 10:03:31;;;;;;;3.33;1.75;;;24.30;99.90;;;;;;5251232;28;20025;-73
2022/06/19 10:06:15;;;;;;;5.43;1.85;;;24.10;99.90;;;;;;5251410;28;20036;-73
2022/06/19 10:09:15;;;;;;;4.10;1.92;;;24.30;99.90;;;;;;5250992;28;20025;-74
2022/06/19 10:11:53;;;;;;;4.43;2.45;;;23.90;99.90;;;;;;5249794;28;20377;-73
2022/06/19 10:14:33;;;;;;;4.72;2.03;;;24.00;99.90;;;;;;5247911;28;20466;-74
2022/06/19 10:17:33;;;;;;;5.93;2.20;;;23.50;99.90;;;;;;5238289;28;20077;-74
2022/06/19 10:20:16;;;;;;;4.10;1.80;;;23.60;99.90;;;;;;5234326;28;20468;-74
2022/06/19 10:23:15;;;;;;;3.10;2.10;;;24.20;99.90;;;;;;5238636;28;20053;-74
2022/06/19 10:26:17;;;;;;;3.05;2.15;;;23.60;99.90;;;;;;5246923;28;20032;-73
2022/06/19 10:29:26;;;;;;;6.55;2.22;;;23.70;99.90;;;;;;5218821;28;20036;-74
2022/06/19 10:32:16;;;;;;;;;;;24.00;99.90;;;;;;5243393;28;20036;-73
2022/06/19 10:34:59;;;;;;;5.53;2.05;;;24.50;99.90;;;;;;5235183;28;19991;-73
2022/06/19 10:37:38;;;;;;;5.60;2.00;;;24.50;99.90;;;;;;5230194;28;20027;-73
2022/06/19 10:40:15;;;;;;;;;;;23.80;99.90;;;;;;5229006;28;20119;-73
2022/06/19 10:43:01;;;;;;;3.33;1.90;;;24.20;99.90;;;;;;5229826;28;19904;-74
2022/06/19 10:45:45;;;;;;;6.50;2.15;;;23.70;99.90;;;;;;5235058;28;20094;-74
2022/06/19 10:49:00;;;;;;;9.07;2.50;;;23.20;99.90;;;;;;5241542;28;20024;-74
2022/06/19 10:52:06;;;;;;;4.50;1.65;;;23.60;99.90;;;;;;5216606;28;20086;-73
2022/06/19 10:54:57;;;;;;;5.18;1.98;;;23.80;99.90;;;;;;5248214;28;20016;-75
2022/06/19 10:58:10;;;;;;;3.53;2.40;;;24.70;99.90;;;;;;5250375;28;20103;-74
2022/06/19 11:00:41;;;;;;;6.43;2.38;;;24.20;99.90;;;;;;5247271;28;20047;-74
2022/06/19 11:06:51;;;;;;;3.25;2.13;;;24.30;99.90;;;;;;5236325;28;20384;-74
2022/06/19 11:09:32;;;;;;;5.47;2.00;;;24.80;99.90;;;;;;5239378;28;20021;-74
2022/06/19 11:12:32;;;;;;;5.30;1.75;;;24.80;99.90;;;;;;5228075;28;20051;-75
2022/06/19 11:15:25;;;;;;;4.38;1.90;;;23.90;99.90;;;;;;5242963;28;20024;-74
2022/06/19 11:18:16;;;;;;;6.97;2.17;;;23.80;99.90;;;;;;5249853;28;20051;-74
2022/06/19 11:20:54;;;;;;;4.10;2.03;;;24.40;99.90;;;;;;5249942;28;20025;-74
2022/06/19 11:23:31;;;;;;;6.20;2.00;;;24.70;99.90;;;;;;5249711;28;20024;-74
2022/06/19 11:26:21;;;;;;;6.10;2.10;;;24.40;99.90;;;;;;5248484;28;20039;-74
2022/06/19 11:29:07;;;;;;;2.60;1.67;;;25.30;99.90;;;;;;5244973;28;20028;-73
2022/06/19 11:31:59;;;;;;;4.55;1.60;;;24.50;99.90;;;;;;5238210;28;20051;-75
2022/06/19 11:34:51;;;;;;;5.90;2.08;;;24.60;99.90;;;;;;5249730;28;20028;-74
2022/06/19 11:37:32;;;;;;;6.88;2.08;;;24.90;99.90;;;;;;5233992;28;20473;-74
2022/06/19 11:40:06;;;;;;;4.05;2.28;;;24.60;99.90;;;;;;5227365;28;20349;-74
2022/06/19 11:42:38;;;;;;;8.48;2.08;;;24.50;99.90;;;;;;5227428;28;20082;-75
2022/06/19 11:45:14;;;;;;;2.30;1.65;;;24.60;99.90;;;;;;5228511;28;20067;-75
2022/06/19 11:47:56;;;;;;;7.05;1.73;;;25.20;99.90;;;;;;5228569;28;20099;-74
2022/06/19 11:50:36;;;;;;;3.85;1.90;;;24.50;99.90;;;;;;5228782;28;20021;-74
2022/06/19 11:53:10;;;;;;;3.47;2.00;;;24.60;99.90;;;;;;5228680;28;20032;-74
2022/06/19 11:55:47;;;;;;;5.80;2.03;;;24.70;99.90;;;;;;5228461;28;20563;-74
2022/06/19 11:58:31;;;;;;;8.40;2.15;;;25.30;99.90;;;;;;5228624;28;20032;-75
2022/06/19 12:01:10;;;;;;;5.75;2.28;;;24.40;99.90;;;;;;5228312;28;20094;-75
2022/06/19 12:03:43;;;;;;;3.95;2.00;;;24.20;99.90;;;;;;5228382;28;20037;-74
2022/06/19 12:06:18;;;;;;;4.95;2.13;;;24.20;99.90;;;;;;5231955;28;20040;-75
2022/06/19 12:08:59;;;;;;;4.47;2.00;;;23.90;99.90;;;;;;5231954;28;20058;-75
2022/06/19 12:11:46;;;;;;;13.23;3.03;;;23.90;99.90;;;;;;5229845;28;20025;-75
2022/06/19 12:14:32;;;;;;;3.75;2.42;;;23.50;99.90;;;;;;5230455;28;20110;-75
2022/06/19 12:17:32;;;;;;;7.75;3.03;;;22.90;99.90;;;;;;5228233;28;20036;-75
2022/06/19 12:20:06;;;;;;;6.32;3.00;;;22.80;99.90;;;;;;5228046;28;20032;-75
2022/06/19 12:22:51;;;;;;;11.35;3.10;;;22.80;99.90;;;;;;5227158;28;20029;-75
2022/06/19 12:25:47;;;;;;;9.65;4.03;;;22.90;99.90;;;;;;5227638;28;20067;-75
2022/06/19 12:28:25;;;;;;;9.05;2.78;;;23.30;99.90;;;;;;5227889;28;20019;-75
2022/06/19 12:30:58;;;;;;;43.20;3.80;;;23.80;99.90;;;;;;5226640;28;20044;-76
2022/06/19 12:33:40;;;;;;;4.75;2.45;;;24.50;99.90;;;;;;5227943;28;20031;-75
2022/06/19 12:36:14;;;;;;;8.45;2.65;;;25.10;99.90;;;;;;5226649;28;20025;-75
2022/06/19 12:38:46;;;;;;;8.07;2.38;;;25.10;99.90;;;;;;5226350;28;20156;-75
2022/06/19 12:41:38;;;;;;;7.43;2.30;;;25.30;99.90;;;;;;5227610;28;20074;-75
2022/06/19 12:44:44;;;;;;;7.40;2.10;;;25.10;99.90;;;;;;5227220;28;20420;-74
2022/06/19 12:47:46;;;;;;;4.90;2.58;;;24.70;99.90;;;;;;5227651;28;20083;-75
2022/06/19 12:50:20;;;;;;;7.03;3.17;;;24.70;99.90;;;;;;5227477;28;20025;-75
2022/06/19 12:52:58;;;;;;;7.13;2.65;;;24.30;99.90;;;;;;5227658;28;20053;-75
2022/06/19 12:55:50;;;;;;;6.50;4.03;;;24.00;99.90;;;;;;5227553;28;20025;-75
2022/06/19 12:58:36;;;;;;;5.75;2.80;;;24.20;99.90;;;;;;5227490;28;20025;-74
2022/06/19 13:01:43;;;;;;;7.32;2.67;;;24.20;99.90;;;;;;5227238;28;20108;-75
2022/06/19 13:04:21;;;;;;;3.80;2.45;;;24.30;99.90;;;;;;5226133;28;20126;-75
2022/06/19 13:07:04;;;;;;;6.95;2.80;;;24.70;99.90;;;;;;5233964;28;20024;-75
2022/06/19 13:10:08;;;;;;;5.03;2.50;;;25.00;99.90;;;;;;5236863;28;20087;-75
2022/06/19 13:13:17;;;;;;;5.85;2.38;;;24.90;99.90;;;;;;5227362;28;20037;-75
2022/06/19 13:15:58;;;;;;;5.40;2.40;;;24.70;99.90;;;;;;5239728;28;20086;-75
2022/06/19 13:19:16;;;;;;;6.07;2.20;;;24.50;99.90;;;;;;5234644;28;20036;-75
2022/06/19 13:21:56;;;;;;;4.60;2.42;;;24.20;99.90;;;;;;5236884;28;20484;-76
2022/06/19 13:24:44;;;;;;;3.78;2.15;;;24.90;99.90;;;;;;5236928;28;20396;-75
2022/06/19 13:27:36;;;;;;;3.63;1.92;;;24.20;99.90;;;;;;5237767;28;20021;-75
2022/06/19 13:30:19;;;;;;;4.65;2.28;;;24.80;99.90;;;;;;5227136;28;20040;-75
2022/06/19 13:33:15;;;;;;;5.15;1.90;;;25.00;99.90;;;;;;5227691;28;20090;-75
2022/06/19 13:36:09;;;;;;;3.80;2.00;;;24.10;99.90;;;;;;5231380;28;20087;-75
2022/06/19 13:38:43;;;;;;;6.43;2.53;;;24.30;99.90;;;;;;5231367;28;20108;-74
2022/06/19 13:41:24;;;;;;;4.75;2.85;;;25.00;99.90;;;;;;5231129;28;20029;-75
2022/06/19 13:44:04;;;;;;;3.75;2.17;;;24.60;99.90;;;;;;5230698;28;20025;-75
2022/06/19 13:46:50;;;;;;;4.28;2.13;;;24.70;99.90;;;;;;5231128;28;20366;-76
2022/06/19 13:49:30;;;;;;;6.20;2.20;;;24.50;99.90;;;;;;5229726;28;20075;-75
2022/06/19 13:52:38;;;;;;;6.40;2.40;;;24.20;99.90;;;;;;5231051;28;20025;-76